createdAt,value
2017-04-18T00:00:00.038Z,6.94
2017-04-18T00:00:40.537Z,6.98
2017-04-18T00:01:20.997Z,6.98
2017-04-18T00:02:01.491Z,6.98
2017-04-18T00:02:41.991Z,7.03
2017-04-18T00:03:22.475Z,7.02
2017-04-18T00:04:02.939Z,7.05
2017-04-18T00:04:43.419Z,7.06
2017-04-18T00:05:23.922Z,6.89
2017-04-18T00:06:04.389Z,7.03
2017-04-18T00:06:44.875Z,6.89
2017-04-18T00:07:25.367Z,6.92
2017-04-18T00:08:05.855Z,7.06
2017-04-18T00:08:46.346Z,7.03
2017-04-18T00:09:26.828Z,6.92
2017-04-18T00:10:07.324Z,6.95
2017-04-18T00:10:47.813Z,6.94
2017-04-18T00:11:28.307Z,7.06
2017-04-18T00:12:08.793Z,6.89
2017-04-18T00:12:49.295Z,6.89
2017-04-18T00:13:29.787Z,6.95
2017-04-18T00:14:10.289Z,6.92
2017-04-18T00:14:50.762Z,6.95
2017-04-18T00:15:31.816Z,6.94
2017-04-18T00:16:11.735Z,6.92
2017-04-18T00:16:52.229Z,6.92
2017-04-18T00:17:32.717Z,6.88
2017-04-18T00:18:13.200Z,6.98
2017-04-18T00:18:53.674Z,6.89
2017-04-18T00:19:34.172Z,6.89
2017-04-18T00:20:14.643Z,6.89
2017-04-18T00:20:55.133Z,6.95
2017-04-18T00:21:35.607Z,6.94
2017-04-18T00:22:16.108Z,6.94
2017-04-18T00:22:56.578Z,6.87
2017-04-18T00:23:37.067Z,6.98
2017-04-18T00:24:17.560Z,6.89
2017-04-18T00:24:58.783Z,6.88
2017-04-18T00:25:39.256Z,6.88
2017-04-18T00:26:19.764Z,6.88
2017-04-18T00:27:00.228Z,6.87
2017-04-18T00:27:40.703Z,6.89
2017-04-18T00:28:21.173Z,6.81
2017-04-18T00:29:01.662Z,6.85
2017-04-18T00:29:42.152Z,6.81
2017-04-18T00:30:22.634Z,6.8
2017-04-18T00:31:03.114Z,6.79
2017-04-18T00:31:43.606Z,6.87
2017-04-18T00:32:24.097Z,6.84
2017-04-18T00:33:04.615Z,6.87
2017-04-18T00:33:45.048Z,6.73
2017-04-18T00:34:25.503Z,6.85
2017-04-18T00:35:05.991Z,6.73
2017-04-18T00:35:46.462Z,6.76
2017-04-18T00:36:26.960Z,6.7
2017-04-18T00:37:07.451Z,6.79
2017-04-18T00:37:47.910Z,6.79
2017-04-18T00:38:28.380Z,6.66
2017-04-18T00:39:08.867Z,6.7
2017-04-18T00:39:49.351Z,6.77
2017-04-18T00:40:29.819Z,6.66
2017-04-18T00:41:10.309Z,6.71
2017-04-18T00:41:50.798Z,6.71
2017-04-18T00:42:31.288Z,6.7
2017-04-18T00:43:11.758Z,6.66
2017-04-18T00:43:52.239Z,6.67
2017-04-18T00:44:32.715Z,6.66
2017-04-18T00:46:20.243Z,6.58
2017-04-18T00:47:00.670Z,6.55
2017-04-18T00:47:41.152Z,6.51
2017-04-18T00:48:21.631Z,6.49
2017-04-18T00:49:02.112Z,6.48
2017-04-18T00:49:42.591Z,6.37
2017-04-18T00:50:23.084Z,6.43
2017-04-18T00:51:03.552Z,6.37
2017-04-18T00:51:44.038Z,6.3
2017-04-18T00:52:24.525Z,6.34
2017-04-18T00:53:05.021Z,6.31
2017-04-18T00:53:45.510Z,6.38
2017-04-18T00:54:25.990Z,6.37
2017-04-18T00:55:06.464Z,6.19
2017-04-18T00:55:46.979Z,6.25
2017-04-18T00:56:27.443Z,6.21
2017-04-18T00:57:07.933Z,6.17
2017-04-18T00:57:48.403Z,6.08
2017-04-18T00:58:28.891Z,6.08
2017-04-18T00:59:09.391Z,6.18
2017-04-18T00:59:49.860Z,6.14
2017-04-18T01:00:30.356Z,6.15
2017-04-18T01:01:10.838Z,6.09
2017-04-18T01:01:51.362Z,6.15
2017-04-18T01:02:31.814Z,6.03
2017-04-18T01:03:12.315Z,5.96
2017-04-18T01:03:52.786Z,5.94
2017-04-18T01:04:33.272Z,6.09
2017-04-18T01:05:13.742Z,5.99
2017-04-18T01:05:54.223Z,6.09
2017-04-18T01:06:34.722Z,6.14
2017-04-18T01:07:15.259Z,6.15
2017-04-18T01:07:55.690Z,5.99
2017-04-18T01:08:36.179Z,6.04
2017-04-18T01:09:16.700Z,5.94
2017-04-18T01:09:57.156Z,6.04
2017-04-18T01:10:37.649Z,5.97
2017-04-18T01:11:18.146Z,6.01
2017-04-18T01:11:58.633Z,5.93
2017-04-18T01:12:39.139Z,5.93
2017-04-18T01:13:19.571Z,5.97
2017-04-18T01:14:00.013Z,5.82
2017-04-18T01:14:40.487Z,5.78
2017-04-18T01:15:20.926Z,5.79
2017-04-18T01:16:01.373Z,5.82
2017-04-18T01:16:41.834Z,5.76
2017-04-18T01:17:22.289Z,5.79
2017-04-18T01:18:02.741Z,5.76
2017-04-18T01:18:43.173Z,5.75
2017-04-18T01:20:35.775Z,5.75
2017-04-18T01:21:16.202Z,5.71
2017-04-18T01:21:56.664Z,5.65
2017-04-18T01:22:37.163Z,5.74
2017-04-18T01:23:17.657Z,5.74
2017-04-18T01:23:58.117Z,5.54
2017-04-18T01:24:38.602Z,5.64
2017-04-18T01:25:19.096Z,5.56
2017-04-18T01:25:59.561Z,5.63
2017-04-18T01:26:40.067Z,5.58
2017-04-18T01:27:20.560Z,5.58
2017-04-18T01:28:01.064Z,5.63
2017-04-18T01:28:41.526Z,5.6
2017-04-18T01:29:22.012Z,5.53
2017-04-18T01:30:02.498Z,5.57
2017-04-18T01:30:43.007Z,5.54
2017-04-18T01:31:23.505Z,5.61
2017-04-18T01:32:03.982Z,5.58
2017-04-18T01:32:44.485Z,5.56
2017-04-18T01:33:24.954Z,5.61
2017-04-18T01:34:05.433Z,5.58
2017-04-18T01:34:45.919Z,5.64
2017-04-18T01:35:26.406Z,5.56
2017-04-18T01:36:06.877Z,5.64
2017-04-18T01:36:47.419Z,5.58
2017-04-18T01:37:27.846Z,5.57
2017-04-18T01:38:08.331Z,5.53
2017-04-18T01:38:48.803Z,5.51
2017-04-18T01:39:29.290Z,5.54
2017-04-18T01:40:09.759Z,5.51
2017-04-18T01:40:50.239Z,5.58
2017-04-18T01:41:30.744Z,5.58
2017-04-18T01:42:11.223Z,5.54
2017-04-18T01:42:51.784Z,5.54
2017-04-18T01:43:32.256Z,5.51
2017-04-18T01:44:12.721Z,5.54
2017-04-18T01:44:53.225Z,5.53
2017-04-18T01:45:33.774Z,5.51
2017-04-18T01:46:14.260Z,5.48
2017-04-18T01:46:54.735Z,5.51
2017-04-18T01:47:35.210Z,5.45
2017-04-18T01:48:15.710Z,5.53
2017-04-18T01:48:56.174Z,5.49
2017-04-18T01:49:36.708Z,5.53
2017-04-18T01:50:17.141Z,5.38
2017-04-18T01:50:57.627Z,5.43
2017-04-18T01:51:38.100Z,5.42
2017-04-18T01:52:18.614Z,5.35
2017-04-18T01:52:59.082Z,5.39
2017-04-18T01:53:39.542Z,5.39
2017-04-18T01:54:20.039Z,5.4
2017-04-18T01:55:00.509Z,5.38
2017-04-18T01:55:40.992Z,5.33
2017-04-18T01:56:21.476Z,5.36
2017-04-18T01:57:01.969Z,5.39
2017-04-18T01:57:42.460Z,5.39
2017-04-18T01:58:22.948Z,5.36
2017-04-18T01:59:04.220Z,5.3
2017-04-18T01:59:44.697Z,5.38
2017-04-18T02:00:25.171Z,5.36
2017-04-18T02:01:05.663Z,5.4
2017-04-18T02:01:46.164Z,5.38
2017-04-18T02:02:26.706Z,5.36
2017-04-18T02:03:07.128Z,5.39
2017-04-18T02:03:47.607Z,5.3
2017-04-18T02:04:28.086Z,5.35
2017-04-18T02:05:08.560Z,5.33
2017-04-18T02:05:49.030Z,5.36
2017-04-18T02:06:29.489Z,5.31
2017-04-18T02:07:09.952Z,5.3
2017-04-18T02:07:50.407Z,5.35
2017-04-18T02:08:30.893Z,5.33
2017-04-18T02:09:11.325Z,5.36
2017-04-18T02:11:08.990Z,5.17
2017-04-18T02:11:49.412Z,5.2
2017-04-18T02:12:29.912Z,5.27
2017-04-18T02:13:10.376Z,5.2
2017-04-18T02:13:50.821Z,5.09
2017-04-18T02:14:31.283Z,5.1
2017-04-18T02:15:11.757Z,5.13
2017-04-18T02:15:52.231Z,5.17
2017-04-18T02:16:32.678Z,5.15
2017-04-18T02:18:25.239Z,5.15
2017-04-18T02:19:05.694Z,5.06
2017-04-18T02:19:46.170Z,5.17
2017-04-18T02:20:26.679Z,5.13
2017-04-18T02:21:07.150Z,5.02
2017-04-18T02:21:47.610Z,5.09
2017-04-18T02:22:28.116Z,5.07
2017-04-18T02:23:08.611Z,5.04
2017-04-18T02:23:49.077Z,5.1
2017-04-18T02:24:29.544Z,5.03
2017-04-18T02:25:10.028Z,5.06
2017-04-18T02:25:50.508Z,5.07
2017-04-18T02:26:31.002Z,4.92
2017-04-18T02:27:11.482Z,5.04
2017-04-18T02:27:51.959Z,4.97
2017-04-18T02:28:32.439Z,5
2017-04-18T02:29:12.936Z,4.88
2017-04-18T02:29:53.422Z,4.89
2017-04-18T02:30:33.910Z,4.85
2017-04-18T02:31:14.399Z,4.75
2017-04-18T02:31:54.889Z,4.72
2017-04-18T02:32:35.369Z,4.73
2017-04-18T02:33:15.854Z,4.82
2017-04-18T02:33:56.353Z,4.67
2017-04-18T02:34:36.823Z,4.82
2017-04-18T02:35:17.301Z,4.73
2017-04-18T02:35:57.775Z,4.62
2017-04-18T02:36:38.265Z,4.73
2017-04-18T02:37:18.753Z,4.78
2017-04-18T02:37:59.232Z,4.78
2017-04-18T02:38:39.730Z,4.8
2017-04-18T02:39:20.210Z,4.78
2017-04-18T02:40:00.681Z,4.8
2017-04-18T02:40:41.163Z,4.88
2017-04-18T02:41:21.631Z,4.77
2017-04-18T02:42:02.112Z,4.75
2017-04-18T02:42:42.584Z,4.82
2017-04-18T02:43:23.061Z,4.73
2017-04-18T02:44:03.543Z,4.69
2017-04-18T02:44:44.035Z,4.75
2017-04-18T02:45:24.508Z,4.75
2017-04-18T02:46:04.997Z,4.73
2017-04-18T02:46:45.445Z,4.66
2017-04-18T02:47:25.943Z,4.66
2017-04-18T02:48:06.406Z,4.7
2017-04-18T02:48:46.888Z,4.67
2017-04-18T02:49:27.366Z,4.62
2017-04-18T02:50:07.857Z,4.69
2017-04-18T02:50:48.334Z,4.69
2017-04-18T02:51:28.836Z,4.65
2017-04-18T02:52:09.321Z,4.66
2017-04-18T02:52:49.814Z,4.69
2017-04-18T02:53:30.263Z,4.66
2017-04-18T02:54:10.737Z,4.66
2017-04-18T02:54:51.228Z,4.66
2017-04-18T02:55:31.717Z,4.63
2017-04-18T02:56:12.193Z,4.66
2017-04-18T02:56:52.669Z,4.69
2017-04-18T02:57:33.149Z,4.63
2017-04-18T02:58:13.635Z,4.67
2017-04-18T02:58:54.110Z,4.67
2017-04-18T02:59:34.602Z,4.75
2017-04-18T03:00:15.081Z,4.69
2017-04-18T03:00:55.527Z,4.77
2017-04-18T03:01:35.974Z,4.66
2017-04-18T03:02:16.418Z,4.66
2017-04-18T03:02:56.875Z,4.7
2017-04-18T03:04:34.246Z,4.67
2017-04-18T03:05:14.661Z,4.78
2017-04-18T03:05:55.142Z,4.78
2017-04-18T03:06:35.604Z,4.75
2017-04-18T03:07:16.046Z,4.78
2017-04-18T03:08:53.372Z,4.92
2017-04-18T03:09:33.872Z,4.85
2017-04-18T03:10:14.342Z,4.89
2017-04-18T03:10:54.802Z,4.94
2017-04-18T03:11:35.271Z,4.88
2017-04-18T03:12:15.759Z,4.84
2017-04-18T03:12:56.275Z,4.92
2017-04-18T03:13:36.722Z,4.91
2017-04-18T03:14:17.209Z,4.88
2017-04-18T03:14:57.680Z,4.82
2017-04-18T03:15:38.166Z,4.91
2017-04-18T03:16:18.654Z,4.8
2017-04-18T03:16:59.112Z,4.96
2017-04-18T03:17:39.593Z,4.82
2017-04-18T03:18:20.074Z,4.85
2017-04-18T03:19:00.583Z,4.85
2017-04-18T03:19:41.046Z,5
2017-04-18T03:21:28.722Z,4.94
2017-04-18T03:22:08.962Z,4.94
2017-04-18T03:22:49.436Z,4.96
2017-04-18T03:23:29.916Z,4.97
2017-04-18T03:24:10.429Z,4.94
2017-04-18T03:24:50.924Z,4.99
2017-04-18T03:25:31.398Z,5.06
2017-04-18T03:26:11.862Z,5.09
2017-04-18T03:26:52.307Z,5.02
2017-04-18T03:27:32.789Z,5.07
2017-04-18T03:28:13.261Z,5.04
2017-04-18T03:28:53.764Z,5.06
2017-04-18T03:29:34.247Z,5.06
2017-04-18T03:30:14.711Z,5.06
2017-04-18T03:30:55.198Z,5.06
2017-04-18T03:32:47.741Z,5.03
2017-04-18T03:33:28.212Z,5.09
2017-04-18T03:34:08.706Z,5.04
2017-04-18T03:34:49.195Z,5.04
2017-04-18T03:35:29.679Z,5.07
2017-04-18T03:36:10.174Z,5.07
2017-04-18T03:36:50.673Z,5.07
2017-04-18T03:37:31.167Z,5.03
2017-04-18T03:38:11.639Z,5.04
2017-04-18T03:38:52.153Z,5.02
2017-04-18T03:39:32.586Z,4.94
2017-04-18T03:40:13.071Z,5
2017-04-18T03:40:53.569Z,5
2017-04-18T03:41:34.061Z,5.1
2017-04-18T03:42:14.542Z,5
2017-04-18T03:42:55.031Z,4.97
2017-04-18T03:43:35.499Z,4.96
2017-04-18T03:44:15.999Z,5.09
2017-04-18T03:44:56.467Z,5.07
2017-04-18T03:45:36.957Z,5.06
2017-04-18T03:46:17.444Z,5.09
2017-04-18T03:46:57.977Z,5.07
2017-04-18T03:47:38.427Z,5.06
2017-04-18T03:48:18.906Z,5.04
2017-04-18T03:48:59.390Z,5
2017-04-18T03:49:39.851Z,4.99
2017-04-18T03:50:20.312Z,4.97
2017-04-18T03:52:12.829Z,5.02
2017-04-18T03:52:53.340Z,4.94
2017-04-18T03:53:33.797Z,4.96
2017-04-18T03:54:15.003Z,5.02
2017-04-18T03:54:55.474Z,5.02
2017-04-18T03:55:35.951Z,5.09
2017-04-18T03:56:16.406Z,5.02
2017-04-18T03:56:56.854Z,5.03
2017-04-18T03:58:34.232Z,5.03
2017-04-18T03:59:14.702Z,5
2017-04-18T03:59:55.153Z,5.02
2017-04-18T04:00:35.649Z,5.04
2017-04-18T04:01:16.131Z,5.06
2017-04-18T04:01:56.611Z,4.97
2017-04-18T04:02:37.094Z,4.97
2017-04-18T04:03:17.580Z,5.02
2017-04-18T04:03:58.076Z,4.97
2017-04-18T04:04:38.556Z,4.96
2017-04-18T04:05:19.051Z,4.86
2017-04-18T04:05:59.537Z,4.86
2017-04-18T04:06:40.042Z,4.96
2017-04-18T04:07:20.540Z,4.84
2017-04-18T04:08:01.015Z,4.86
2017-04-18T04:08:41.498Z,4.96
2017-04-18T04:09:21.979Z,4.88
2017-04-18T04:10:02.460Z,4.85
2017-04-18T04:10:42.949Z,4.94
2017-04-18T04:11:23.426Z,4.96
2017-04-18T04:12:03.910Z,4.99
2017-04-18T04:12:44.384Z,4.88
2017-04-18T04:13:24.863Z,4.94
2017-04-18T04:14:05.351Z,4.89
2017-04-18T04:14:45.802Z,4.89
2017-04-18T04:15:26.276Z,4.96
2017-04-18T04:16:06.756Z,4.97
2017-04-18T04:16:47.240Z,4.99
2017-04-18T04:17:27.731Z,4.96
2017-04-18T04:18:08.214Z,4.92
2017-04-18T04:18:48.688Z,4.96
2017-04-18T04:19:29.180Z,4.99
2017-04-18T04:20:09.660Z,5.07
2017-04-18T04:20:50.132Z,5.04
2017-04-18T04:21:30.627Z,5.06
2017-04-18T04:22:11.112Z,5.07
2017-04-18T04:22:51.600Z,5.09
2017-04-18T04:23:32.084Z,5.1
2017-04-18T04:24:12.611Z,5.06
2017-04-18T04:24:53.048Z,5.07
2017-04-18T04:25:33.528Z,5.09
2017-04-18T04:26:14.030Z,5.06
2017-04-18T04:26:54.517Z,5.06
2017-04-18T04:27:35.005Z,5.07
2017-04-18T04:28:15.472Z,5.09
2017-04-18T04:28:55.978Z,5.12
2017-04-18T04:29:36.424Z,5.1
2017-04-18T04:30:16.915Z,5.09
2017-04-18T04:30:57.404Z,5.03
2017-04-18T04:31:37.877Z,5.13
2017-04-18T04:32:18.360Z,5.09
2017-04-18T04:32:58.860Z,5.09
2017-04-18T04:33:39.344Z,5.12
2017-04-18T04:34:19.837Z,5.13
2017-04-18T04:35:00.313Z,5.09
2017-04-18T04:35:40.777Z,5.04
2017-04-18T04:36:21.266Z,5.1
2017-04-18T04:37:01.740Z,5.02
2017-04-18T04:37:42.231Z,5.07
2017-04-18T04:38:22.724Z,5.07
2017-04-18T04:39:03.204Z,5.02
2017-04-18T04:39:43.685Z,4.94
2017-04-18T04:40:24.168Z,4.99
2017-04-18T04:41:04.653Z,5
2017-04-18T04:41:45.140Z,5
2017-04-18T04:42:25.620Z,5
2017-04-18T04:43:06.096Z,4.96
2017-04-18T04:43:46.570Z,4.99
2017-04-18T04:44:27.057Z,5.12
2017-04-18T04:45:07.540Z,5.04
2017-04-18T04:45:48.011Z,5.03
2017-04-18T04:46:28.513Z,5.06
2017-04-18T04:47:08.999Z,5.06
2017-04-18T04:47:49.484Z,5.06
2017-04-18T04:48:29.969Z,5.03
2017-04-18T04:49:10.443Z,5.17
2017-04-18T04:49:50.949Z,5.06
2017-04-18T04:50:31.406Z,5.1
2017-04-18T04:51:11.905Z,5.06
2017-04-18T04:51:52.388Z,5.04
2017-04-18T04:52:32.886Z,5.07
2017-04-18T04:53:13.357Z,5.12
2017-04-18T04:53:53.840Z,5.12
2017-04-18T04:54:34.340Z,5.12
2017-04-18T04:55:14.814Z,5.15
2017-04-18T04:55:55.294Z,5.07
2017-04-18T04:56:35.773Z,5.17
2017-04-18T04:57:16.231Z,5.03
2017-04-18T04:57:56.695Z,5.15
2017-04-18T04:58:37.157Z,5.1
2017-04-18T04:59:17.597Z,5.04
2017-04-18T04:59:58.030Z,5.13
2017-04-18T05:00:38.482Z,5.1
2017-04-18T05:01:18.913Z,5.12
2017-04-18T05:01:59.354Z,5.15
2017-04-18T05:02:39.799Z,5.12
2017-04-18T05:03:20.228Z,5.1
2017-04-18T05:04:57.549Z,5.04
2017-04-18T05:05:38.037Z,5.06
2017-04-18T05:06:18.542Z,5.04
2017-04-18T05:06:59.009Z,5.06
2017-04-18T05:07:39.503Z,5.03
2017-04-18T05:08:19.969Z,5.06
2017-04-18T05:09:00.461Z,5.15
2017-04-18T05:09:40.931Z,5.1
2017-04-18T05:10:21.414Z,5.03
2017-04-18T05:11:01.882Z,5.06
2017-04-18T05:11:42.368Z,5.12
2017-04-18T05:12:22.847Z,5.18
2017-04-18T05:13:03.325Z,5.15
2017-04-18T05:13:43.819Z,5.24
2017-04-18T05:14:24.299Z,5.24
2017-04-18T05:15:04.787Z,5.24
2017-04-18T05:15:45.262Z,5.18
2017-04-18T05:16:25.743Z,5.22
2017-04-18T05:17:06.203Z,5.22
2017-04-18T05:18:58.730Z,5.3
2017-04-18T05:19:39.187Z,5.3
2017-04-18T05:20:19.655Z,5.18
2017-04-18T05:21:00.117Z,5.24
2017-04-18T05:21:40.597Z,5.21
2017-04-18T05:22:21.144Z,5.3
2017-04-18T05:23:01.671Z,5.25
2017-04-18T05:23:42.141Z,5.31
2017-04-18T05:24:22.593Z,5.3
2017-04-18T05:25:03.096Z,5.39
2017-04-18T05:25:43.596Z,5.4
2017-04-18T05:26:24.067Z,5.39
2017-04-18T05:27:04.546Z,5.39
2017-04-18T05:27:45.023Z,5.45
2017-04-18T05:28:25.516Z,5.4
2017-04-18T05:29:06.006Z,5.38
2017-04-18T05:29:46.480Z,5.39
2017-04-18T05:31:44.186Z,5.4
2017-04-18T05:32:24.551Z,5.35
2017-04-18T05:33:05.050Z,5.35
2017-04-18T05:33:45.531Z,5.25
2017-04-18T05:34:25.977Z,5.24
2017-04-18T05:35:06.429Z,5.39
2017-04-18T05:35:46.875Z,5.38
2017-04-18T05:36:27.352Z,5.39
2017-04-18T05:37:07.803Z,5.39
2017-04-18T05:37:48.253Z,5.3
2017-04-18T05:38:28.706Z,5.33
2017-04-18T05:39:09.168Z,5.39
2017-04-18T05:39:49.642Z,5.4
2017-04-18T05:41:42.224Z,5.38
2017-04-18T05:42:22.646Z,5.36
2017-04-18T05:43:03.244Z,5.31
2017-04-18T05:43:43.826Z,5.18
2017-04-18T05:44:24.353Z,5.18
2017-04-18T05:45:04.938Z,5.25
2017-04-18T05:45:45.495Z,5.39
2017-04-18T05:46:25.995Z,5.28
2017-04-18T05:47:06.472Z,5.22
2017-04-18T05:47:46.934Z,5.22
2017-04-18T05:49:44.545Z,5.22
2017-04-18T05:50:25.015Z,5.13
2017-04-18T05:51:05.487Z,5.27
2017-04-18T05:51:45.942Z,5.27
2017-04-18T05:52:26.404Z,5.25
2017-04-18T05:53:06.893Z,5.18
2017-04-18T05:53:48.127Z,5.24
2017-04-18T05:54:28.574Z,5.04
2017-04-18T05:55:09.013Z,5.03
2017-04-18T05:55:49.477Z,5.07
2017-04-18T05:56:29.956Z,5.06
2017-04-18T05:57:10.408Z,5.1
2017-04-18T05:57:50.836Z,5.13
2017-04-18T05:58:31.264Z,5.12
2017-04-18T05:59:11.749Z,5.17
2017-04-18T05:59:52.207Z,5.07
2017-04-18T06:00:32.680Z,5.1
2017-04-18T06:01:13.120Z,5.25
2017-04-18T06:01:53.576Z,5.21
2017-04-18T06:03:41.263Z,5.3
2017-04-18T06:04:21.527Z,5.42
2017-04-18T06:05:01.985Z,5.33
2017-04-18T06:05:42.429Z,5.42
2017-04-18T06:06:22.884Z,5.43
2017-04-18T06:07:03.305Z,5.42
2017-04-18T06:08:56.029Z,5.38
2017-04-18T06:09:36.349Z,5.43
2017-04-18T06:10:16.811Z,5.36
2017-04-18T06:10:57.265Z,5.43
2017-04-18T06:11:37.746Z,5.3
2017-04-18T06:12:18.187Z,5.28
2017-04-18T06:12:58.660Z,5.21
2017-04-18T06:14:56.327Z,5.1
2017-04-18T06:15:36.837Z,5.21
2017-04-18T06:16:17.261Z,5.13
2017-04-18T06:16:57.703Z,5.12
2017-04-18T06:17:38.159Z,5.21
2017-04-18T06:18:18.597Z,5.25
2017-04-18T06:18:59.064Z,5.06
2017-04-18T06:19:39.515Z,5.2
2017-04-18T06:20:19.968Z,5.31
2017-04-18T06:22:12.515Z,5.39
2017-04-18T06:22:53.000Z,5.4
2017-04-18T06:23:33.481Z,5.57
2017-04-18T06:24:13.949Z,5.58
2017-04-18T06:24:54.438Z,5.6
2017-04-18T06:25:34.901Z,5.64
2017-04-18T06:27:48.142Z,5.74
2017-04-18T06:28:28.742Z,5.81
2017-04-18T06:29:09.207Z,5.85
2017-04-18T06:29:49.670Z,5.99
2017-04-18T06:30:30.144Z,6.14
2017-04-18T06:31:10.624Z,6.14
2017-04-18T06:31:51.178Z,6.19
2017-04-18T06:32:31.701Z,6.17
2017-04-18T06:33:12.236Z,6.15
2017-04-18T06:33:52.683Z,6.01
2017-04-18T06:34:33.182Z,6.08
2017-04-18T06:35:13.636Z,6.28
2017-04-18T06:35:54.088Z,6.15
2017-04-18T06:37:41.800Z,6.15
2017-04-18T06:38:22.111Z,5.9
2017-04-18T06:39:02.582Z,5.94
2017-04-18T06:39:43.016Z,5.99
2017-04-18T06:41:55.767Z,5.99
2017-04-18T06:42:36.259Z,6.08
2017-04-18T06:43:16.726Z,5.96
2017-04-18T06:43:57.215Z,5.91
2017-04-18T06:44:37.670Z,5.85
2017-04-18T06:45:18.207Z,5.83
2017-04-18T06:45:58.681Z,5.93
2017-04-18T06:46:39.138Z,5.9
2017-04-18T06:47:19.616Z,5.81
2017-04-18T06:49:07.507Z,5.75
2017-04-18T06:49:47.679Z,5.96
2017-04-18T06:51:35.236Z,6.03
2017-04-18T06:52:15.576Z,6.09
2017-04-18T06:52:56.050Z,6
2017-04-18T06:53:36.511Z,6.12
2017-04-18T06:54:16.976Z,6.09
2017-04-18T06:54:57.436Z,6.03
2017-04-18T06:55:37.949Z,6.14
2017-04-18T06:56:18.404Z,6.06
2017-04-18T06:56:58.875Z,6.08
2017-04-18T06:57:39.325Z,5.96
2017-04-18T06:58:19.781Z,6.03
2017-04-18T06:59:00.286Z,5.96
2017-04-18T06:59:40.738Z,5.99
2017-04-18T07:00:21.217Z,5.78
2017-04-18T07:01:01.667Z,5.76
2017-04-18T07:01:42.118Z,5.81
2017-04-18T07:02:22.600Z,5.82
2017-04-18T07:03:03.087Z,5.74
2017-04-18T07:03:44.278Z,5.78
2017-04-18T07:04:24.736Z,5.76
2017-04-18T07:05:05.207Z,5.67
2017-04-18T07:05:45.678Z,5.64
2017-04-18T07:07:22.994Z,5.75
2017-04-18T07:08:03.466Z,5.64
2017-04-18T07:08:43.958Z,5.75
2017-04-18T07:09:24.441Z,5.74
2017-04-18T07:10:04.927Z,5.85
2017-04-18T07:10:45.431Z,5.81
2017-04-18T07:11:25.901Z,5.83
2017-04-18T07:12:06.366Z,5.86
2017-04-18T07:12:46.839Z,5.81
2017-04-18T07:13:27.292Z,5.81
2017-04-18T07:14:07.768Z,5.89
2017-04-18T07:14:48.260Z,5.97
2017-04-18T07:15:28.741Z,6.03
2017-04-18T07:16:09.261Z,5.93
2017-04-18T07:16:49.740Z,5.82
2017-04-18T07:18:27.154Z,5.93
2017-04-18T07:19:07.557Z,6.01
2017-04-18T07:19:48.006Z,6.01
2017-04-18T07:21:45.642Z,5.93
2017-04-18T07:22:26.070Z,6
2017-04-18T07:23:06.515Z,5.86
2017-04-18T07:25:19.356Z,5.99
2017-04-18T07:25:59.715Z,5.97
2017-04-18T07:26:40.225Z,5.96
2017-04-18T07:27:20.746Z,5.85
2017-04-18T07:28:01.309Z,5.91
2017-04-18T07:28:41.792Z,5.97
2017-04-18T07:29:22.253Z,6.11
2017-04-18T07:31:14.790Z,6.21
2017-04-18T07:31:55.264Z,6.44
2017-04-18T07:32:35.774Z,6.4
2017-04-18T07:33:16.260Z,6.49
2017-04-18T07:33:56.729Z,6.51
2017-04-18T07:34:37.292Z,6.51
2017-04-18T07:35:17.786Z,6.54
2017-04-18T07:35:58.282Z,6.67
2017-04-18T07:36:38.758Z,6.87
2017-04-18T07:37:19.237Z,6.89
2017-04-18T07:38:00.478Z,6.71
2017-04-18T07:38:40.933Z,6.67
2017-04-18T07:40:18.327Z,6.69
2017-04-18T07:40:58.869Z,6.69
2017-04-18T07:41:39.341Z,6.84
2017-04-18T07:42:19.802Z,6.89
2017-04-18T07:43:00.280Z,6.88
2017-04-18T07:43:40.724Z,7.02
2017-04-18T07:45:18.051Z,7.05
2017-04-18T07:45:58.553Z,6.98
2017-04-18T07:46:39.080Z,7.03
2017-04-18T07:47:19.526Z,6.89
2017-04-18T07:48:00.018Z,7.05
2017-04-18T07:48:40.486Z,6.99
2017-04-18T07:49:20.966Z,6.97
2017-04-18T07:50:01.425Z,7.03
2017-04-18T07:50:41.922Z,6.95
2017-04-18T07:51:22.411Z,7.03
2017-04-18T07:52:02.958Z,6.99
2017-04-18T07:52:43.385Z,6.99
2017-04-18T07:53:23.861Z,7.02
2017-04-18T07:54:04.333Z,7.15
2017-04-18T07:55:51.832Z,6.99
2017-04-18T07:56:32.239Z,7.1
2017-04-18T07:57:12.731Z,6.97
2017-04-18T07:57:53.774Z,6.89
2017-04-18T07:58:34.248Z,6.89
2017-04-18T07:59:14.741Z,6.88
2017-04-18T07:59:55.240Z,6.97
2017-04-18T08:00:35.757Z,6.92
2017-04-18T08:01:16.247Z,6.91
2017-04-18T08:01:56.680Z,6.89
2017-04-18T08:02:37.201Z,6.88
2017-04-18T08:03:17.676Z,6.89
2017-04-18T08:03:58.214Z,6.92
2017-04-18T08:04:38.678Z,6.91
2017-04-18T08:05:19.141Z,7.05
2017-04-18T08:05:59.614Z,7.13
2017-04-18T08:06:40.069Z,7.09
2017-04-18T08:08:27.608Z,7.21
2017-04-18T08:09:08.016Z,7.2
2017-04-18T08:09:48.465Z,7.09
2017-04-18T08:10:28.945Z,7.13
2017-04-18T08:11:09.394Z,7.21
2017-04-18T08:11:49.851Z,7.27
2017-04-18T08:12:30.381Z,7.39
2017-04-18T08:13:10.885Z,7.4
2017-04-18T08:13:51.400Z,7.42
2017-04-18T08:14:31.931Z,7.61
2017-04-18T08:15:12.416Z,7.53
2017-04-18T08:15:52.907Z,7.55
2017-04-18T08:16:33.430Z,7.39
2017-04-18T08:17:13.892Z,7.37
2017-04-18T08:17:54.388Z,7.46
2017-04-18T08:18:34.838Z,7.46
2017-04-18T08:19:15.316Z,7.3
2017-04-18T08:19:55.810Z,7.4
2017-04-18T08:20:36.380Z,7.32
2017-04-18T08:21:16.822Z,7.32
2017-04-18T08:21:58.099Z,7.43
2017-04-18T08:22:38.600Z,7.55
2017-04-18T08:23:19.076Z,7.52
2017-04-18T08:23:59.538Z,7.74
2017-04-18T08:24:40.014Z,7.58
2017-04-18T08:25:20.523Z,7.63
2017-04-18T08:26:01.076Z,7.58
2017-04-18T08:26:41.482Z,7.52
2017-04-18T08:27:22.077Z,7.5
2017-04-18T08:28:02.519Z,7.63
2017-04-18T08:28:43.018Z,7.69
2017-04-18T08:29:23.525Z,7.74
2017-04-18T08:30:04.011Z,7.72
2017-04-18T08:30:44.529Z,7.79
2017-04-18T08:31:25.018Z,8.02
2017-04-18T08:32:05.516Z,8.08
2017-04-18T08:32:46.055Z,8.02
2017-04-18T08:33:26.627Z,8.19
2017-04-18T08:34:07.122Z,8.16
2017-04-18T08:36:19.959Z,8.65
2017-04-18T08:37:00.326Z,8.77
2017-04-18T08:37:40.868Z,8.76
2017-04-18T08:38:21.436Z,9.02
2017-04-18T08:39:01.929Z,8.96
2017-04-18T08:39:43.127Z,9.35
2017-04-18T08:40:23.638Z,9.51
2017-04-18T08:41:04.114Z,9.84
2017-04-18T08:41:44.635Z,10.08
2017-04-18T08:43:37.232Z,9.83
2017-04-18T08:44:17.683Z,9.29
2017-04-18T08:44:58.179Z,9.14
2017-04-18T08:45:38.668Z,9.47
2017-04-18T08:46:19.181Z,9.5
2017-04-18T08:46:59.708Z,9.83
2017-04-18T08:47:40.242Z,9.89
2017-04-18T08:48:20.714Z,9.81
2017-04-18T08:49:01.187Z,9.76
2017-04-18T08:49:41.639Z,9.46
2017-04-18T08:50:22.172Z,9.51
2017-04-18T08:51:02.762Z,9.6
2017-04-18T08:51:43.204Z,9.64
2017-04-18T08:52:23.715Z,9.57
2017-04-18T08:54:21.405Z,9.66
2017-04-18T08:55:01.877Z,9.66
2017-04-18T08:55:42.357Z,9.72
2017-04-18T08:56:22.857Z,9.46
2017-04-18T08:57:03.379Z,9.48
2017-04-18T08:57:43.884Z,9.66
2017-04-18T08:58:24.369Z,9.51
2017-04-18T08:59:04.891Z,9.72
2017-04-18T08:59:45.356Z,9.97
2017-04-18T09:00:25.796Z,9.93
2017-04-18T09:02:03.185Z,10.17
2017-04-18T09:02:43.589Z,10.23
2017-04-18T09:03:24.101Z,10.2
2017-04-18T09:05:01.442Z,10.42
2017-04-18T09:05:41.894Z,10.15
2017-04-18T09:06:22.397Z,10.3
2017-04-18T09:07:02.907Z,10.23
2017-04-18T09:07:43.435Z,10.2
2017-04-18T09:09:56.470Z,9.89
2017-04-18T09:10:36.819Z,9.6
2017-04-18T09:11:17.289Z,9.94
2017-04-18T09:11:57.762Z,9.89
2017-04-18T09:12:38.250Z,9.87
2017-04-18T09:13:18.703Z,9.91
2017-04-18T09:13:59.264Z,9.86
2017-04-18T09:14:39.924Z,9.47
2017-04-18T09:15:20.651Z,9.26
2017-04-18T09:16:01.503Z,9.39
2017-04-18T09:16:42.212Z,9.51
2017-04-18T09:17:22.850Z,9.65
2017-04-18T09:18:03.651Z,9.5
2017-04-18T09:18:44.465Z,9.69
2017-04-18T09:19:25.188Z,9.66
2017-04-18T09:20:06.037Z,9.54
2017-04-18T09:20:47.140Z,9.58
2017-04-18T09:21:28.027Z,9.94
2017-04-18T09:22:09.275Z,10.32
2017-04-18T09:22:50.106Z,10.27
2017-04-18T09:23:30.828Z,10.34
2017-04-18T09:24:11.819Z,10.73
2017-04-18T09:24:52.691Z,10.7
2017-04-18T09:25:33.509Z,10.74
2017-04-18T09:26:14.177Z,10.92
2017-04-18T09:26:54.735Z,10.71
2017-04-18T09:27:35.490Z,10.67
2017-04-18T09:28:16.549Z,10.66
2017-04-18T09:28:57.404Z,10.89
2017-04-18T09:29:38.136Z,11.15
2017-04-18T09:30:18.855Z,11.29
2017-04-18T09:30:59.512Z,11.28
2017-04-18T09:31:40.268Z,11.51
2017-04-18T09:32:20.934Z,11.47
2017-04-18T09:33:01.715Z,11.67
2017-04-18T09:33:42.444Z,12.02
2017-04-18T09:34:23.389Z,11.79
2017-04-18T09:35:04.011Z,11.49
2017-04-18T09:35:44.633Z,11.14
2017-04-18T09:36:25.422Z,10.91
2017-04-18T09:37:05.938Z,10.6
2017-04-18T09:37:46.637Z,10.94
2017-04-18T09:38:27.510Z,11.04
2017-04-18T09:39:08.076Z,11.02
2017-04-18T09:39:49.115Z,11.35
2017-04-18T09:40:29.982Z,11.1
2017-04-18T09:41:10.808Z,11.09
2017-04-18T09:41:51.538Z,11.4
2017-04-18T09:42:32.141Z,11.32
2017-04-18T09:43:13.021Z,11.36
2017-04-18T09:43:54.034Z,11.11
2017-04-18T09:44:34.829Z,11.42
2017-04-18T09:45:17.052Z,11.6
2017-04-18T09:45:58.783Z,11.64